Time;durP1;ratioP1;P1;durP2;ratioP2;P2;SDS_P1;SDS_P2;PMS_P1;PMS_P2;Temp;Humidity;BMP_temperature;BMP_pressure;BME280_temperature;BME280_humidity;BME280_pressure;Samples;Min_cycle;Max_cycle;Signal;HPM_P1;HPM_P2
2022/01/28 00:05:17;;;;;;;;;;;;;;;;;;5034081;28;20312;-48
2022/01/28 00:07:42;;;;;;;;;;;;;;;;;;5037674;28;19971;-50
2022/01/28 00:10:07;;;;;;;;;;;;;;;;;;5037837;28;20319;-51
2022/01/28 00:12:34;;;;;;;;;;;;;;;;;;5037902;28;19908;-48
2022/01/28 00:15:08;;;;;;;;;;;;;;;;;;5037855;28;19940;-48
2022/01/28 00:18:10;;;;;;;;;;;;;;;;;;5037880;28;19907;-49
2022/01/28 00:39:08;;;;;;;;;;;;;;;;;;5037362;28;19909;-48
2022/01/28 00:41:34;;;;;;;;;;;;;;;;;;5037371;28;20008;-47
2022/01/28 00:43:59;;;;;;;;;;;;;;;;;;5037360;28;20059;-47
2022/01/28 00:46:24;;;;;;;;;;;;;;;;;;5037255;28;19905;-47
2022/01/28 00:48:49;;;;;;;;;;;;;;;;;;5037261;28;19908;-48
2022/01/28 00:51:14;;;;;;;;;;;;;;;;;;5037048;28;19912;-48
2022/01/28 00:53:39;;;;;;;;;;;;;;;;;;5037206;28;19909;-50
2022/01/28 00:56:04;;;;;;;;;;;;;;;;;;5037183;28;19972;-48
2022/01/28 00:58:29;;;;;;;;;;;;;;;;;;5037096;28;19905;-48
2022/01/28 01:00:54;;;;;;;;;;;;;;;;;;5037002;28;19915;-47
2022/01/28 01:03:19;;;;;;;;;;;;;;;;;;5036908;28;20253;-48
2022/01/28 01:05:45;;;;;;;;;;;;;;;;;;5036691;28;19905;-48
2022/01/28 01:08:10;;;;;;;;;;;;;;;;;;5036712;28;19917;-48
2022/01/28 01:10:35;;;;;;;;;;;;;;;;;;5036864;28;19909;-49
2022/01/28 01:13:00;;;;;;;;;;;;;;;;;;5036598;28;20257;-48
2022/01/28 01:15:31;;;;;;;;;;;;;;;;;;5036826;28;19905;-49
2022/01/28 01:18:07;;;;;;;;;;;;;;;;;;5036306;28;20272;-47
2022/01/28 01:20:50;;;;;;;;;;;;;;;;;;5036765;28;20008;-47
2022/01/28 01:23:31;;;;;;;;;;;;;;;;;;5036648;28;19913;-48
2022/01/28 01:26:07;;;;;;;;;;;;;;;;;;5036654;28;19905;-48
2022/01/28 01:28:35;;;;;;;;;;;;;;;;;;5036412;28;19956;-48
2022/01/28 01:31:01;;;;;;;;;;;;;;;;;;5018597;28;20007;-49
2022/01/28 01:33:29;;;;;;;;;;;;;;;;;;5036353;28;19905;-48
2022/01/28 01:35:54;;;;;;;;;;;;;;;;;;5036437;28;19909;-48
2022/01/28 01:38:24;;;;;;;;;;;;;;;;;;5036316;28;20362;-48
2022/01/28 01:40:54;;;;;;;;;;;;;;;;;;5036329;28;19956;-48
2022/01/28 01:43:35;;;;;;;;;;;;;;;;;;5036169;28;19909;-49
2022/01/28 01:53:56;;;;;;;;;;;;;;;;;;5036119;28;19913;-48
2022/01/28 01:56:21;;;;;;;;;;;;;;;;;;5036096;28;19909;-48
2022/01/28 01:58:46;;;;;;;;;;;;;;;;;;5036119;28;19909;-47
2022/01/28 02:01:12;;;;;;;;;;;;;;;;;;5035921;28;19980;-48
2022/01/28 02:03:37;;;;;;;;;;;;;;;;;;5035783;28;20353;-48
2022/01/28 02:06:02;;;;;;;;;;;;;;;;;;5035479;28;20280;-49
2022/01/28 02:08:27;;;;;;;;;;;;;;;;;;5035617;28;19913;-48
2022/01/28 02:10:56;;;;;;;;;;;;;;;;;;5035663;28;19992;-48
2022/01/28 02:13:22;;;;;;;;;;;;;;;;;;5035672;28;19912;-47
2022/01/28 02:15:47;;;;;;;;;;;;;;;;;;5035667;28;20273;-48
2022/01/28 02:18:12;;;;;;;;;;;;;;;;;;5035643;28;19905;-48
2022/01/28 02:20:41;;;;;;;;;;;;;;;;;;5035628;28;19905;-47
2022/01/28 02:23:07;;;;;;;;;;;;;;;;;;5035259;28;19915;-48
2022/01/28 02:25:33;;;;;;;;;;;;;;;;;;5032756;28;19917;-48
2022/01/28 02:27:59;;;;;;;;;;;;;;;;;;5034818;28;20317;-49
2022/01/28 02:30:24;;;;;;;;;;;;;;;;;;5034541;28;19905;-49
2022/01/28 02:32:50;;;;;;;;;;;;;;;;;;5035339;28;20011;-50
2022/01/28 02:35:15;;;;;;;;;;;;;;;;;;5034981;28;19951;-48
2022/01/28 02:37:40;;;;;;;;;;;;;;;;;;5034972;28;20257;-48
2022/01/28 02:40:06;;;;;;;;;;;;;;;;;;5035073;28;19909;-48
2022/01/28 02:42:47;;;;;;;;;;;;;;;;;;5035091;28;19905;-48
2022/01/28 02:45:15;;;;;;;;;;;;;;;;;;5034739;28;19904;-48
2022/01/28 02:47:42;;;;;;;;;;;;;;;;;;5035230;28;20346;-49
2022/01/28 02:50:08;;;;;;;;;;;;;;;;;;5035134;28;19913;-47
2022/01/28 02:52:44;;;;;;;;;;;;;;;;;;5034868;28;19908;-50
2022/01/28 02:55:12;;;;;;;;;;;;;;;;;;5035580;28;20294;-48
2022/01/28 02:57:41;;;;;;;;;;;;;;;;;;5034928;28;19905;-47
2022/01/28 03:00:06;;;;;;;;;;;;;;;;;;5034880;28;19908;-48
2022/01/28 03:02:31;;;;;;;;;;;;;;;;;;5034818;28;19905;-47
2022/01/28 03:07:40;;;;;;;;;;;;;;;;;;5034460;28;19975;-48
2022/01/28 03:12:47;;;;;;;;;;;;;;;;;;5034733;28;20372;-48
2022/01/28 03:15:18;;;;;;;;;;;;;;;;;;5034671;28;20253;-48
2022/01/28 03:17:55;;;;;;;;;;;;;;;;;;5034640;28;19955;-48
2022/01/28 03:22:45;;;;;;;;;;;;;;;;;;5034631;28;19905;-48
2022/01/28 03:25:10;;;;;;;;;;;;;;;;;;5034409;28;20384;-49
2022/01/28 03:30:13;;;;;;;;;;;;;;;;;;5034360;28;19905;-48
2022/01/28 03:32:38;;;;;;;;;;;;;;;;;;5034435;28;19928;-50
2022/01/28 03:35:04;;;;;;;;;;;;;;;;;;5034379;28;19905;-48
2022/01/28 03:37:29;;;;;;;;;;;;;;;;;;5034441;28;19909;-49
2022/01/28 03:39:55;;;;;;;;;;;;;;;;;;5035187;28;19919;-48
2022/01/28 03:42:20;;;;;;;;;;;;;;;;;;5038735;28;20000;-48
2022/01/28 03:44:45;;;;;;;;;;;;;;;;;;5038468;28;19901;-48
2022/01/28 03:47:10;;;;;;;;;;;;;;;;;;5038507;28;19913;-48
2022/01/28 03:49:35;;;;;;;;;;;;;;;;;;5038076;28;19920;-49
2022/01/28 03:52:00;;;;;;;;;;;;;;;;;;5038324;28;19913;-49
2022/01/28 03:54:25;;;;;;;;;;;;;;;;;;5038318;28;20352;-48
2022/01/28 03:56:50;;;;;;;;;;;;;;;;;;5038298;28;20356;-47
2022/01/28 03:59:15;;;;;;;;;;;;;;;;;;5037805;28;19909;-48
2022/01/28 04:01:44;;;;;;;;;;;;;;;;;;5037935;28;19920;-48
2022/01/28 04:12:19;;;;;;;;;;;;;;;;;;5038147;28;19912;-48
2022/01/28 04:17:30;;;;;;;;;;;;;;;;;;4996523;28;19988;-48
2022/01/28 04:19:55;;;;;;;;;;;;;;;;;;4988131;28;19914;-49
2022/01/28 04:22:20;;;;;;;;;;;;;;;;;;4977070;28;19949;-48
2022/01/28 04:24:45;;;;;;;;;;;;;;;;;;4977010;28;19941;-48
2022/01/28 04:27:10;;;;;;;;;;;;;;;;;;4976746;28;19910;-48
2022/01/28 04:29:35;;;;;;;;;;;;;;;;;;4976330;28;19910;-48
2022/01/28 04:32:01;;;;;;;;;;;;;;;;;;4976909;28;20007;-48
2022/01/28 04:34:26;;;;;;;;;;;;;;;;;;4976344;28;20377;-48
2022/01/28 04:37:06;;;;;;;;;;;;;;;;;;4976601;28;19906;-47
2022/01/28 04:39:49;;;;;;;;;;;;;;;;;;4975938;28;19964;-48
2022/01/28 04:42:48;;;;;;;;;;;;;;;;;;4976519;28;19952;-49
2022/01/28 04:47:52;;;;;;;;;;;;;;;;;;4988388;28;20351;-49
2022/01/28 04:50:33;;;;;;;;;;;;;;;;;;5027821;28;20352;-48
2022/01/28 04:55:48;;;;;;;;;;;;;;;;;;5037290;28;19995;-50
2022/01/28 05:06:06;;;;;;;;;;;;;;;;;;5036994;28;19905;-48
2022/01/28 05:08:59;;;;;;;;;;;;;;;;;;5036655;28;19912;-48
2022/01/28 05:11:37;;;;;;;;;;;;;;;;;;5036488;28;19912;-49
2022/01/28 05:17:04;;;;;;;;;;;;;;;;;;;;;
2022/01/28 05:27:06;;;;;;;;;;;;;;;;;;5036544;28;19909;-49
2022/01/28 05:29:32;;;;;;;;;;;;;;;;;;5036440;28;19905;-50
2022/01/28 05:31:57;;;;;;;;;;;;;;;;;;5036438;28;20007;-47
2022/01/28 05:34:25;;;;;;;;;;;;;;;;;;5036493;28;20504;-49
2022/01/28 05:36:51;;;;;;;;;;;;;;;;;;5036399;28;19927;-48
2022/01/28 05:39:16;;;;;;;;;;;;;;;;;;5036317;28;19905;-49
2022/01/28 05:41:41;;;;;;;;;;;;;;;;;;5036270;28;20039;-49
2022/01/28 05:44:06;;;;;;;;;;;;;;;;;;5036413;28;19907;-48
2022/01/28 05:46:32;;;;;;;;;;;;;;;;;;5036346;28;19911;-48
2022/01/28 05:48:57;;;;;;;;;;;;;;;;;;5036019;28;20268;-48
2022/01/28 05:51:22;;;;;;;;;;;;;;;;;;5036096;28;19921;-50
2022/01/28 05:53:47;;;;;;;;;;;;;;;;;;5036179;28;20272;-48
2022/01/28 05:56:12;;;;;;;;;;;;;;;;;;5035958;28;19905;-47
2022/01/28 05:58:37;;;;;;;;;;;;;;;;;;5035966;28;19912;-50
2022/01/28 06:01:02;;;;;;;;;;;;;;;;;;5035899;28;19913;-49
2022/01/28 06:03:28;;;;;;;;;;;;;;;;;;5035965;28;19912;-49
2022/01/28 06:05:53;;;;;;;;;;;;;;;;;;5035646;28;19909;-48
2022/01/28 06:08:18;;;;;;;;;;;;;;;;;;5035853;28;20367;-51
2022/01/28 06:10:43;;;;;;;;;;;;;;;;;;5035671;28;19912;-51
2022/01/28 06:13:09;;;;;;;;;;;;;;;;;;5035774;28;19905;-50
2022/01/28 06:15:34;;;;;;;;;;;;;;;;;;5035392;28;20123;-48
2022/01/28 06:17:59;;;;;;;;;;;;;;;;;;5035721;28;20352;-50
2022/01/28 06:20:24;;;;;;;;;;;;;;;;;;5035792;28;19908;-48
2022/01/28 06:22:49;;;;;;;;;;;;;;;;;;5035666;28;19916;-48
2022/01/28 06:25:15;;;;;;;;;;;;;;;;;;5035532;28;20301;-48
2022/01/28 06:27:40;;;;;;;;;;;;;;;;;;5035353;28;19962;-48
2022/01/28 06:30:05;;;;;;;;;;;;;;;;;;5035502;28;20286;-49
2022/01/28 06:32:30;;;;;;;;;;;;;;;;;;5035450;28;20352;-49
2022/01/28 06:34:56;;;;;;;;;;;;;;;;;;5036613;28;20268;-48
2022/01/28 06:37:21;;;;;;;;;;;;;;;;;;5035432;28;19905;-49
2022/01/28 06:39:46;;;;;;;;;;;;;;;;;;5035333;28;19912;-49
2022/01/28 06:42:11;;;;;;;;;;;;;;;;;;5034572;28;19916;-49
2022/01/28 06:44:36;;;;;;;;;;;;;;;;;;5035004;28;20276;-48
2022/01/28 06:47:01;;;;;;;;;;;;;;;;;;5033702;28;20275;-49
2022/01/28 06:49:26;;;;;;;;;;;;;;;;;;5013771;28;20320;-51
2022/01/28 06:51:51;;;;;;;;;;;;;;;;;;5033278;28;19909;-48
2022/01/28 06:54:16;;;;;;;;;;;;;;;;;;5034249;28;19909;-48
2022/01/28 06:56:42;;;;;;;;;;;;;;;;;;5031915;28;19909;-49
2022/01/28 06:59:07;;;;;;;;;;;;;;;;;;5031936;28;20352;-48
2022/01/28 07:01:32;;;;;;;;;;;;;;;;;;5029537;28;20383;-49
2022/01/28 07:03:57;;;;;;;;;;;;;;;;;;5023369;28;19909;-49
2022/01/28 07:06:23;;;;;;;;;;;;;;;;;;5029512;28;19960;-50
2022/01/28 07:08:48;;;;;;;;;;;;;;;;;;5022758;28;20374;-50
2022/01/28 07:11:13;;;;;;;;;;;;;;;;;;5017162;28;20060;-49
2022/01/28 07:13:38;;;;;;;;;;;;;;;;;;5004621;28;20511;-52
2022/01/28 07:16:03;;;;;;;;;;;;;;;;;;5002464;28;19955;-49
2022/01/28 07:18:29;;;;;;;;;;;;;;;;;;4969237;28;19917;-51
2022/01/28 07:20:54;;;;;;;;;;;;;;;;;;4953150;28;19917;-51
2022/01/28 07:23:19;;;;;;;;;;;;;;;;;;4921247;28;20091;-49
2022/01/28 07:25:44;;;;;;;;;;;;;;;;;;4888133;28;20767;-52
2022/01/28 07:28:09;;;;;;;;;;;;;;;;;;4836736;28;20583;-50
2022/01/28 07:30:34;;;;;;;;;;;;;;;;;;4894880;28;21671;-50
2022/01/28 07:33:01;;;;;;;;;;;;;;;;;;4906158;28;20003;-49
2022/01/28 07:35:26;;;;;;;;;;;;;;;;;;4969508;28;20055;-51
2022/01/28 07:37:51;;;;;;;;;;;;;;;;;;4965475;28;19916;-50
2022/01/28 07:40:17;;;;;;;;;;;;;;;;;;4984151;28;19962;-50
2022/01/28 07:42:42;;;;;;;;;;;;;;;;;;4997769;28;19962;-51
2022/01/28 07:45:07;;;;;;;;;;;;;;;;;;4993978;28;19987;-49
2022/01/28 07:47:32;;;;;;;;;;;;;;;;;;4997268;28;19942;-49
2022/01/28 07:49:57;;;;;;;;;;;;;;;;;;4986240;28;21697;-50
2022/01/28 07:52:22;;;;;;;;;;;;;;;;;;4989931;28;20016;-52
2022/01/28 07:54:49;;;;;;;;;;;;;;;;;;4982098;28;19924;-48
2022/01/28 07:57:15;;;;;;;;;;;;;;;;;;4968248;28;20049;-49
2022/01/28 07:59:40;;;;;;;;;;;;;;;;;;4983570;28;19924;-49
2022/01/28 08:02:05;;;;;;;;;;;;;;;;;;4968502;28;19917;-49
2022/01/28 08:04:30;;;;;;;;;;;;;;;;;;4955462;28;19917;-50
2022/01/28 08:06:55;;;;;;;;;;;;;;;;;;4950815;28;20581;-50
2022/01/28 08:09:20;;;;;;;;;;;;;;;;;;4932154;28;20620;-49
2022/01/28 08:11:45;;;;;;;;;;;;;;;;;;4935440;28;20010;-49
2022/01/28 08:14:13;;;;;;;;;;;;;;;;;;4892042;28;19928;-52
2022/01/28 08:16:39;;;;;;;;;;;;;;;;;;4765660;28;19920;-52
2022/01/28 08:19:04;;;;;;;;;;;;;;;;;;4700066;28;20580;-51
2022/01/28 08:21:29;;;;;;;;;;;;;;;;;;4769062;28;20711;-51
2022/01/28 08:23:54;;;;;;;;;;;;;;;;;;4820832;28;21385;-49
2022/01/28 08:26:19;;;;;;;;;;;;;;;;;;4811126;28;22789;-48
2022/01/28 08:28:44;;;;;;;;;;;;;;;;;;4880344;28;19947;-53
2022/01/28 08:31:09;;;;;;;;;;;;;;;;;;4905977;28;19996;-51
2022/01/28 08:33:34;;;;;;;;;;;;;;;;;;4878660;28;20838;-50
2022/01/28 08:36:01;;;;;;;;;;;;;;;;;;4921325;28;19917;-48
2022/01/28 08:38:30;;;;;;;;;;;;;;;;;;4922625;28;19917;-52
2022/01/28 08:40:57;;;;;;;;;;;;;;;;;;4908282;28;20042;-51
2022/01/28 08:43:22;;;;;;;;;;;;;;;;;;4893250;28;20997;-49
2022/01/28 08:45:47;;;;;;;;;;;;;;;;;;4902331;28;19917;-48
2022/01/28 08:48:12;;;;;;;;;;;;;;;;;;4914793;28;21086;-48
2022/01/28 08:50:37;;;;;;;;;;;;;;;;;;4905721;28;20027;-50
2022/01/28 08:53:02;;;;;;;;;;;;;;;;;;4901348;28;20797;-53
2022/01/28 08:55:27;;;;;;;;;;;;;;;;;;4877214;28;20002;-49
2022/01/28 08:57:53;;;;;;;;;;;;;;;;;;4837757;28;20872;-50
2022/01/28 09:00:19;;;;;;;;;;;;;;;;;;4854602;28;20301;-48
2022/01/28 09:02:44;;;;;;;;;;;;;;;;;;4832729;28;19916;-47
2022/01/28 09:05:09;;;;;;;;;;;;;;;;;;4786264;28;23322;-50
2022/01/28 09:07:34;;;;;;;;;;;;;;;;;;4783267;28;20569;-53
2022/01/28 09:10:04;;;;;;;;;;;;;;;;;;4773758;28;20691;-54
2022/01/28 09:12:40;;;;;;;;;;;;;;;;;;4814986;28;20085;-53
2022/01/28 09:15:05;;;;;;;;;;;;;;;;;;4808188;28;19955;-53
2022/01/28 09:17:30;;;;;;;;;;;;;;;;;;4848965;28;19955;-50
2022/01/28 09:19:55;;;;;;;;;;;;;;;;;;4824731;28;21146;-51
2022/01/28 09:22:20;;;;;;;;;;;;;;;;;;4845306;28;20545;-49
2022/01/28 09:24:45;;;;;;;;;;;;;;;;;;4833655;28;19916;-50
2022/01/28 09:27:10;;;;;;;;;;;;;;;;;;4766397;28;20879;-52
2022/01/28 09:29:36;;;;;;;;;;;;;;;;;;4719047;28;21276;-53
2022/01/28 09:32:01;;;;;;;;;;;;;;;;;;4654684;28;22026;-51
2022/01/28 09:34:26;;;;;;;;;;;;;;;;;;4782878;28;23333;-50
2022/01/28 09:36:52;;;;;;;;;;;;;;;;;;4785804;28;20556;-51
2022/01/28 09:39:19;;;;;;;;;;;;;;;;;;4803425;28;20654;-50
2022/01/28 09:41:44;;;;;;;;;;;;;;;;;;4817506;28;19983;-50
2022/01/28 09:44:11;;;;;;;;;;;;;;;;;;4795534;28;21078;-51
2022/01/28 09:46:36;;;;;;;;;;;;;;;;;;4808044;28;22203;-50
2022/01/28 09:49:01;;;;;;;;;;;;;;;;;;4806540;28;19920;-52
2022/01/28 09:51:26;;;;;;;;;;;;;;;;;;4764664;28;23123;-50
2022/01/28 09:53:51;;;;;;;;;;;;;;;;;;4820657;28;19923;-53
2022/01/28 09:56:16;;;;;;;;;;;;;;;;;;4796536;28;19916;-51
2022/01/28 09:58:41;;;;;;;;;;;;;;;;;;4766709;28;20846;-51
2022/01/28 10:01:06;;;;;;;;;;;;;;;;;;4765160;28;21631;-50
2022/01/28 10:03:32;;;;;;;;;;;;;;;;;;4777394;28;20068;-52
2022/01/28 10:05:57;;;;;;;;;;;;;;;;;;4794017;28;20648;-50
2022/01/28 10:08:23;;;;;;;;;;;;;;;;;;4794368;28;20001;-52
2022/01/28 10:10:48;;;;;;;;;;;;;;;;;;4788171;28;22614;-50
2022/01/28 10:13:17;;;;;;;;;;;;;;;;;;4723783;28;19952;-53
2022/01/28 10:15:42;;;;;;;;;;;;;;;;;;4685338;28;26000;-53
2022/01/28 10:18:07;;;;;;;;;;;;;;;;;;4667472;28;19916;-54
2022/01/28 10:20:33;;;;;;;;;;;;;;;;;;4689870;28;20697;-52
2022/01/28 10:22:58;;;;;;;;;;;;;;;;;;4651916;23;19917;-51
2022/01/28 10:25:23;;;;;;;;;;;;;;;;;;4707036;28;23592;-52
2022/01/28 10:27:48;;;;;;;;;;;;;;;;;;4772428;28;22070;-50
2022/01/28 10:30:14;;;;;;;;;;;;;;;;;;4848770;28;20002;-49
2022/01/28 10:32:39;;;;;;;;;;;;;;;;;;4816357;28;19920;-51
2022/01/28 10:35:05;;;;;;;;;;;;;;;;;;4811726;28;20358;-48
2022/01/28 10:37:30;;;;;;;;;;;;;;;;;;4803905;28;20022;-49
2022/01/28 10:39:55;;;;;;;;;;;;;;;;;;4801137;28;21697;-52
2022/01/28 10:42:20;;;;;;;;;;;;;;;;;;4822671;28;22782;-49
2022/01/28 10:44:46;;;;;;;;;;;;;;;;;;4803184;28;19916;-49
2022/01/28 10:47:11;;;;;;;;;;;;;;;;;;4794164;28;21586;-47
2022/01/28 10:49:36;;;;;;;;;;;;;;;;;;4783008;28;20046;-51
2022/01/28 10:52:01;;;;;;;;;;;;;;;;;;4790979;28;21754;-52
2022/01/28 10:54:27;;;;;;;;;;;;;;;;;;4807847;28;20437;-48
2022/01/28 10:56:53;;;;;;;;;;;;;;;;;;4824676;28;19936;-51
2022/01/28 10:59:18;;;;;;;;;;;;;;;;;;4784929;28;20757;-49
2022/01/28 11:01:43;;;;;;;;;;;;;;;;;;4770471;28;19923;-49
2022/01/28 11:04:08;;;;;;;;;;;;;;;;;;4698266;28;21412;-50
2022/01/28 11:06:34;;;;;;;;;;;;;;;;;;4695667;28;22314;-46
2022/01/28 11:08:59;;;;;;;;;;;;;;;;;;4672724;28;20831;-49
2022/01/28 11:11:26;;;;;;;;;;;;;;;;;;4710844;28;22128;-49
2022/01/28 11:13:51;;;;;;;;;;;;;;;;;;4742996;28;19917;-51
2022/01/28 11:16:18;;;;;;;;;;;;;;;;;;4775635;28;21217;-50
2022/01/28 11:18:43;;;;;;;;;;;;;;;;;;4806040;28;19959;-49
2022/01/28 11:21:13;;;;;;;;;;;;;;;;;;4821948;28;20926;-50
2022/01/28 11:23:38;;;;;;;;;;;;;;;;;;4850072;28;19971;-48
2022/01/28 11:26:04;;;;;;;;;;;;;;;;;;4841559;28;20631;-49
2022/01/28 11:28:29;;;;;;;;;;;;;;;;;;4857501;28;19924;-48
2022/01/28 11:30:55;;;;;;;;;;;;;;;;;;4846044;28;20604;-50
2022/01/28 11:33:20;;;;;;;;;;;;;;;;;;4833424;28;20591;-48
2022/01/28 11:35:46;;;;;;;;;;;;;;;;;;4796083;28;19916;-48
2022/01/28 11:38:11;;;;;;;;;;;;;;;;;;4739561;28;21224;-49
2022/01/28 11:40:36;;;;;;;;;;;;;;;;;;4731745;28;20920;-49
2022/01/28 11:43:01;;;;;;;;;;;;;;;;;;4774599;28;20742;-49
2022/01/28 11:45:26;;;;;;;;;;;;;;;;;;4841328;28;21024;-47
2022/01/28 11:47:51;;;;;;;;;;;;;;;;;;4816317;28;19924;-46
2022/01/28 11:50:17;;;;;;;;;;;;;;;;;;4850031;28;21293;-49
2022/01/28 11:52:42;;;;;;;;;;;;;;;;;;4847867;28;21922;-49
2022/01/28 11:55:07;;;;;;;;;;;;;;;;;;4859964;28;20059;-48
2022/01/28 11:57:32;;;;;;;;;;;;;;;;;;4846102;28;19998;-48
2022/01/28 11:59:57;;;;;;;;;;;;;;;;;;4890344;28;21420;-49
2022/01/28 12:02:22;;;;;;;;;;;;;;;;;;4889187;28;20628;-49
2022/01/28 12:04:47;;;;;;;;;;;;;;;;;;4922250;28;19978;-50
2022/01/28 12:07:17;;;;;;;;;;;;;;;;;;4939205;28;20063;-50
2022/01/28 12:09:42;;;;;;;;;;;;;;;;;;4954450;28;19921;-48
2022/01/28 12:12:11;;;;;;;;;;;;;;;;;;4939811;28;19940;-49
2022/01/28 12:14:36;;;;;;;;;;;;;;;;;;4940723;28;19922;-50
2022/01/28 12:17:01;;;;;;;;;;;;;;;;;;4938086;28;20580;-49
2022/01/28 12:19:30;;;;;;;;;;;;;;;;;;4952032;28;19970;-49
2022/01/28 12:21:55;;;;;;;;;;;;;;;;;;4947098;28;19917;-50
2022/01/28 12:24:20;;;;;;;;;;;;;;;;;;4932072;28;20118;-48
2022/01/28 12:26:46;;;;;;;;;;;;;;;;;;4920740;28;19987;-50
2022/01/28 12:29:11;;;;;;;;;;;;;;;;;;4828396;28;22265;-48
2022/01/28 12:31:36;;;;;;;;;;;;;;;;;;4778741;28;21745;-50
2022/01/28 12:34:01;;;;;;;;;;;;;;;;;;4788960;28;19958;-52
2022/01/28 12:36:26;;;;;;;;;;;;;;;;;;4764125;28;24458;-50
2022/01/28 12:41:50;;;;;;;;;;;;;;;;;;4806026;28;20504;-49
2022/01/28 12:44:15;;;;;;;;;;;;;;;;;;4823277;28;19943;-46
2022/01/28 12:46:40;;;;;;;;;;;;;;;;;;4870014;28;20698;-48
2022/01/28 12:49:05;;;;;;;;;;;;;;;;;;4878169;28;20261;-48
2022/01/28 12:51:30;;;;;;;;;;;;;;;;;;4865777;28;20062;-49
2022/01/28 12:53:57;;;;;;;;;;;;;;;;;;4857354;28;19924;-48
2022/01/28 12:56:22;;;;;;;;;;;;;;;;;;4864420;28;19917;-47
2022/01/28 12:58:47;;;;;;;;;;;;;;;;;;4862144;28;20381;-47
2022/01/28 13:01:12;;;;;;;;;;;;;;;;;;4867932;28;19920;-47
2022/01/28 13:03:45;;;;;;;;;;;;;;;;;;4845652;28;20000;-47
2022/01/28 13:06:10;;;;;;;;;;;;;;;;;;4862241;28;19916;-48
2022/01/28 13:08:35;;;;;;;;;;;;;;;;;;4867355;28;19921;-47
2022/01/28 13:11:00;;;;;;;;;;;;;;;;;;4834127;28;19916;-47
2022/01/28 13:13:25;;;;;;;;;;;;;;;;;;4807931;28;20898;-47
2022/01/28 13:15:50;;;;;;;;;;;;;;;;;;4808323;28;21622;-49
2022/01/28 13:18:16;;;;;;;;;;;;;;;;;;4792656;28;19916;-49
2022/01/28 13:20:41;;;;;;;;;;;;;;;;;;4801646;28;20490;-47
2022/01/28 13:23:06;;;;;;;;;;;;;;;;;;4754907;28;21268;-47
2022/01/28 13:25:32;;;;;;;;;;;;;;;;;;4842114;28;19928;-46
2022/01/28 13:28:02;;;;;;;;;;;;;;;;;;4888596;28;22935;-49
2022/01/28 13:30:28;;;;;;;;;;;;;;;;;;4919955;28;22841;-47
2022/01/28 13:32:53;;;;;;;;;;;;;;;;;;4939733;28;21782;-48
2022/01/28 13:35:18;;;;;;;;;;;;;;;;;;4962934;28;19936;-47
2022/01/28 13:37:43;;;;;;;;;;;;;;;;;;4945369;28;21089;-48
2022/01/28 13:40:08;;;;;;;;;;;;;;;;;;4963503;28;21879;-48
2022/01/28 13:42:33;;;;;;;;;;;;;;;;;;4968961;28;19963;-47
2022/01/28 13:45:03;;;;;;;;;;;;;;;;;;4977400;28;19916;-47
2022/01/28 13:47:28;;;;;;;;;;;;;;;;;;4961643;28;21286;-49
2022/01/28 13:49:53;;;;;;;;;;;;;;;;;;4944625;28;20047;-46
2022/01/28 13:52:29;;;;;;;;;;;;;;;;;;4943922;28;19922;-48
2022/01/28 13:54:54;;;;;;;;;;;;;;;;;;4935506;28;20298;-47
2022/01/28 13:57:19;;;;;;;;;;;;;;;;;;4964287;28;19917;-48
2022/01/28 13:59:44;;;;;;;;;;;;;;;;;;4953615;28;19952;-47
2022/01/28 14:02:10;;;;;;;;;;;;;;;;;;4956663;28;22269;-47
2022/01/28 14:04:38;;;;;;;;;;;;;;;;;;4952396;28;20074;-46
2022/01/28 14:07:03;;;;;;;;;;;;;;;;;;4903739;28;20058;-47
2022/01/28 14:09:28;;;;;;;;;;;;;;;;;;4891841;28;21858;-48
2022/01/28 14:12:00;;;;;;;;;;;;;;;;;;4911406;28;20674;-49
2022/01/28 14:14:29;;;;;;;;;;;;;;;;;;4966200;28;19916;-49
2022/01/28 14:16:54;;;;;;;;;;;;;;;;;;4983461;28;20378;-48
2022/01/28 14:19:19;;;;;;;;;;;;;;;;;;4997022;28;19924;-49
2022/01/28 14:21:44;;;;;;;;;;;;;;;;;;4998541;28;19923;-48
2022/01/28 14:24:09;;;;;;;;;;;;;;;;;;4980001;28;20043;-49
2022/01/28 14:26:40;;;;;;;;;;;;;;;;;;4992068;28;19917;-47
2022/01/28 14:31:45;;;;;;;;;;;;;;;;;;4998269;28;19917;-48
2022/01/28 14:34:10;;;;;;;;;;;;;;;;;;5004310;28;19924;-51
2022/01/28 14:36:40;;;;;;;;;;;;;;;;;;5001808;28;19948;-49
2022/01/28 14:39:05;;;;;;;;;;;;;;;;;;5013364;28;19924;-48
2022/01/28 14:41:30;;;;;;;;;;;;;;;;;;5020753;28;19916;-50
2022/01/28 14:43:55;;;;;;;;;;;;;;;;;;5015661;28;19913;-47
2022/01/28 14:46:20;;;;;;;;;;;;;;;;;;5018607;28;22275;-49
2022/01/28 14:48:45;;;;;;;;;;;;;;;;;;5016425;28;20294;-47
2022/01/28 14:51:12;;;;;;;;;;;;;;;;;;5016270;28;19974;-48
2022/01/28 14:53:37;;;;;;;;;;;;;;;;;;5016222;28;20413;-48
2022/01/28 14:56:02;;;;;;;;;;;;;;;;;;5002017;28;19924;-48
2022/01/28 14:58:27;;;;;;;;;;;;;;;;;;5004980;28;19916;-48
2022/01/28 15:00:52;;;;;;;;;;;;;;;;;;4989954;28;19917;-48
2022/01/28 15:03:17;;;;;;;;;;;;;;;;;;4995391;28;19916;-48
2022/01/28 15:05:42;;;;;;;;;;;;;;;;;;5012569;28;20426;-49
2022/01/28 15:08:09;;;;;;;;;;;;;;;;;;5029334;28;19966;-49
2022/01/28 15:10:34;;;;;;;;;;;;;;;;;;5022375;28;19923;-48
2022/01/28 15:12:59;;;;;;;;;;;;;;;;;;5039954;28;20007;-47
2022/01/28 15:15:24;;;;;;;;;;;;;;;;;;5038239;28;19928;-47
2022/01/28 15:17:49;;;;;;;;;;;;;;;;;;5038159;28;19917;-47
2022/01/28 15:20:15;;;;;;;;;;;;;;;;;;5033663;28;20019;-51
2022/01/28 15:22:40;;;;;;;;;;;;;;;;;;5039050;28;19967;-47
2022/01/28 15:25:05;;;;;;;;;;;;;;;;;;5037889;28;20051;-48
2022/01/28 15:27:31;;;;;;;;;;;;;;;;;;5038606;28;20291;-47
2022/01/28 15:30:03;;;;;;;;;;;;;;;;;;5037602;28;19943;-48
2022/01/28 15:37:38;;;;;;;;;;;;;;;;;;5037973;28;19963;-47
2022/01/28 15:40:03;;;;;;;;;;;;;;;;;;5035013;28;19935;-49
2022/01/28 15:42:28;;;;;;;;;;;;;;;;;;5038033;28;20007;-48
2022/01/28 15:44:53;;;;;;;;;;;;;;;;;;5035919;28;19917;-47
2022/01/28 15:47:18;;;;;;;;;;;;;;;;;;5047506;28;19908;-48
2022/01/28 15:49:43;;;;;;;;;;;;;;;;;;5042662;28;19908;-47
2022/01/28 15:52:08;;;;;;;;;;;;;;;;;;5031055;28;19923;-47
2022/01/28 15:54:33;;;;;;;;;;;;;;;;;;5036205;28;20398;-47
2022/01/28 15:56:58;;;;;;;;;;;;;;;;;;5035056;28;20294;-48
2022/01/28 15:59:23;;;;;;;;;;;;;;;;;;5039737;28;19975;-48
2022/01/28 16:01:49;;;;;;;;;;;;;;;;;;5034375;28;19976;-48
2022/01/28 16:04:15;;;;;;;;;;;;;;;;;;5035676;28;19923;-48
2022/01/28 16:06:41;;;;;;;;;;;;;;;;;;5027441;28;19913;-48
2022/01/28 16:09:06;;;;;;;;;;;;;;;;;;5036806;28;19920;-51
2022/01/28 16:11:34;;;;;;;;;;;;;;;;;;5037680;28;19920;-47
2022/01/28 16:14:27;;;;;;;;;;;;;;;;;;5034893;28;19917;-47
2022/01/28 16:19:29;;;;;;;;;;;;;;;;;;5033970;28;19923;-48
2022/01/28 16:21:55;;;;;;;;;;;;;;;;;;5037532;28;19916;-48
2022/01/28 16:24:20;;;;;;;;;;;;;;;;;;5031295;28;19936;-47
2022/01/28 16:26:45;;;;;;;;;;;;;;;;;;5036268;28;20330;-47
2022/01/28 16:29:10;;;;;;;;;;;;;;;;;;5035102;28;20251;-50
2022/01/28 16:31:35;;;;;;;;;;;;;;;;;;5036616;28;19921;-50
2022/01/28 16:34:00;;;;;;;;;;;;;;;;;;5035562;28;19912;-50
2022/01/28 16:36:25;;;;;;;;;;;;;;;;;;5039822;28;19916;-47
2022/01/28 16:38:53;;;;;;;;;;;;;;;;;;5038603;28;19917;-50
2022/01/28 16:41:18;;;;;;;;;;;;;;;;;;5041262;28;19920;-50
2022/01/28 16:43:58;;;;;;;;;;;;;;;;;;5041738;28;19916;-48
2022/01/28 16:46:23;;;;;;;;;;;;;;;;;;5037019;28;19916;-48
2022/01/28 16:48:48;;;;;;;;;;;;;;;;;;5036829;28;19946;-50
2022/01/28 16:51:13;;;;;;;;;;;;;;;;;;5040766;28;19923;-48
2022/01/28 16:53:38;;;;;;;;;;;;;;;;;;5040800;28;20325;-50
2022/01/28 16:56:03;;;;;;;;;;;;;;;;;;5035166;28;19957;-52
2022/01/28 16:58:28;;;;;;;;;;;;;;;;;;5039553;28;19917;-53
2022/01/28 17:00:53;;;;;;;;;;;;;;;;;;5042976;28;20005;-49
2022/01/28 17:03:19;;;;;;;;;;;;;;;;;;5039504;28;19948;-50
2022/01/28 17:05:44;;;;;;;;;;;;;;;;;;5038781;28;19913;-49
2022/01/28 17:08:09;;;;;;;;;;;;;;;;;;5031617;28;21383;-48
2022/01/28 17:10:45;;;;;;;;;;;;;;;;;;5033943;28;19916;-51
2022/01/28 17:13:11;;;;;;;;;;;;;;;;;;5028008;28;20406;-51
2022/01/28 17:15:36;;;;;;;;;;;;;;;;;;5034599;28;20597;-49
2022/01/28 17:18:01;;;;;;;;;;;;;;;;;;5032822;28;19917;-50
2022/01/28 17:20:26;;;;;;;;;;;;;;;;;;5034497;28;19908;-49
2022/01/28 17:22:51;;;;;;;;;;;;;;;;;;5035725;28;19939;-52
2022/01/28 17:25:16;;;;;;;;;;;;;;;;;;5028398;28;21905;-47
2022/01/28 17:27:41;;;;;;;;;;;;;;;;;;5028938;28;20366;-49
2022/01/28 17:30:07;;;;;;;;;;;;;;;;;;5035320;28;20004;-50
2022/01/28 17:32:32;;;;;;;;;;;;;;;;;;5034331;28;20275;-50
2022/01/28 17:34:57;;;;;;;;;;;;;;;;;;5033870;28;19912;-49
2022/01/28 17:37:23;;;;;;;;;;;;;;;;;;5023068;28;19917;-50
2022/01/28 17:39:48;;;;;;;;;;;;;;;;;;5030361;28;19912;-49
2022/01/28 17:42:13;;;;;;;;;;;;;;;;;;5034497;28;19962;-49
2022/01/28 17:44:39;;;;;;;;;;;;;;;;;;5028254;28;19916;-50
2022/01/28 17:47:04;;;;;;;;;;;;;;;;;;5027503;28;20306;-51
2022/01/28 17:49:30;;;;;;;;;;;;;;;;;;5033656;28;20346;-49
2022/01/28 17:51:55;;;;;;;;;;;;;;;;;;5028596;28;19917;-49
2022/01/28 17:54:20;;;;;;;;;;;;;;;;;;5024420;28;19917;-47
2022/01/28 17:56:46;;;;;;;;;;;;;;;;;;5023040;28;20122;-48
2022/01/28 17:59:11;;;;;;;;;;;;;;;;;;5022696;28;19977;-48
2022/01/28 18:01:36;;;;;;;;;;;;;;;;;;5021836;28;20430;-47
2022/01/28 18:04:01;;;;;;;;;;;;;;;;;;5024481;28;19912;-50
2022/01/28 18:06:26;;;;;;;;;;;;;;;;;;5026823;28;19913;-49
2022/01/28 18:08:51;;;;;;;;;;;;;;;;;;5022769;28;19920;-50